createdAt,value
2018-08-27T00:02:13.633Z,9.50
2018-08-27T00:04:41.265Z,9.50
2018-08-27T00:07:08.884Z,9.40
2018-08-27T00:09:37.532Z,9.40
2018-08-27T00:12:05.173Z,9.40
2018-08-27T00:14:32.793Z,9.40
2018-08-27T00:17:00.409Z,9.50
2018-08-27T00:19:28.340Z,9.40
2018-08-27T00:21:56.258Z,9.30
2018-08-27T00:24:23.929Z,9.30
2018-08-27T00:26:51.568Z,9.20
2018-08-27T00:29:19.732Z,9.20
2018-08-27T00:31:47.340Z,9.20
2018-08-27T00:34:14.961Z,9.10
2018-08-27T00:36:42.604Z,9.10
2018-08-27T00:39:11.766Z,9.00
2018-08-27T00:41:39.437Z,9.00
2018-08-27T00:44:07.090Z,8.90
2018-08-27T00:46:34.724Z,8.80
2018-08-27T00:49:02.596Z,8.80
2018-08-27T00:51:30.329Z,8.80
2018-08-27T00:53:57.981Z,8.70
2018-08-27T00:56:26.335Z,8.80
2018-08-27T00:58:54.040Z,8.80
2018-08-27T01:01:21.698Z,8.80
2018-08-27T01:03:49.439Z,8.80
2018-08-27T01:06:23.291Z,9.30
2018-08-27T01:08:51.111Z,8.90
2018-08-27T01:11:18.917Z,8.90
2018-08-27T01:13:47.670Z,8.90
2018-08-27T01:16:15.397Z,8.90
2018-08-27T01:18:43.051Z,8.90
2018-08-27T01:21:10.929Z,8.90
2018-08-27T01:23:38.669Z,8.80
2018-08-27T01:26:12.119Z,8.80
2018-08-27T01:28:39.735Z,8.70
2018-08-27T01:31:07.360Z,8.80
2018-08-27T01:33:35.000Z,8.80
2018-08-27T01:36:02.620Z,8.80
2018-08-27T01:38:30.301Z,8.80
2018-08-27T01:40:57.985Z,8.80
2018-08-27T01:43:25.628Z,8.70
2018-08-27T01:45:53.368Z,8.70
2018-08-27T01:48:21.012Z,8.70
2018-08-27T01:50:48.653Z,8.60
2018-08-27T01:53:16.273Z,8.70
2018-08-27T01:55:43.945Z,8.70
2018-08-27T01:58:11.628Z,8.80
2018-08-27T02:00:40.236Z,8.80
2018-08-27T02:03:07.864Z,8.80
2018-08-27T02:05:35.492Z,8.80
2018-08-27T02:08:03.148Z,8.80
2018-08-27T02:10:30.783Z,8.80
2018-08-27T02:12:58.449Z,8.70
2018-08-27T02:15:26.716Z,8.70
2018-08-27T02:17:54.379Z,8.70
2018-08-27T02:20:22.500Z,8.60
2018-08-27T02:22:50.188Z,8.50
2018-08-27T02:25:17.816Z,8.60
2018-08-27T02:27:46.028Z,8.70
2018-08-27T02:30:13.662Z,8.60
2018-08-27T02:32:41.307Z,8.70
2018-08-27T02:35:10.048Z,8.50
2018-08-27T02:37:37.727Z,8.50
2018-08-27T02:40:05.428Z,8.50
2018-08-27T02:42:33.048Z,8.50
2018-08-27T02:45:00.673Z,8.60
2018-08-27T02:47:28.803Z,8.70
2018-08-27T02:49:56.416Z,8.70
2018-08-27T02:52:24.061Z,8.70
2018-08-27T02:54:51.689Z,8.80
2018-08-27T02:57:19.402Z,8.70
2018-08-27T02:59:47.044Z,8.60
2018-08-27T03:02:14.704Z,8.60
2018-08-27T03:04:42.337Z,8.60
2018-08-27T03:07:09.936Z,8.60
2018-08-27T03:09:37.709Z,8.60
2018-08-27T03:12:05.340Z,8.60
2018-08-27T03:14:33.008Z,8.60
2018-08-27T03:17:00.667Z,8.60
2018-08-27T03:19:28.307Z,8.50
2018-08-27T03:21:55.948Z,8.60
2018-08-27T03:24:23.597Z,8.60
2018-08-27T03:26:51.212Z,8.50
2018-08-27T03:29:18.832Z,8.60
2018-08-27T03:31:48.841Z,8.60
2018-08-27T03:34:16.501Z,8.60
2018-08-27T03:36:44.196Z,8.50
2018-08-27T03:39:12.216Z,8.50
2018-08-27T03:41:40.088Z,8.50
2018-08-27T03:44:08.853Z,7.80
2018-08-27T03:46:36.477Z,8.30
2018-08-27T03:49:04.154Z,8.30
2018-08-27T03:51:31.777Z,8.30
2018-08-27T03:53:59.413Z,8.30
2018-08-27T03:56:27.062Z,8.30
2018-08-27T03:58:54.679Z,8.30
2018-08-27T04:01:22.873Z,8.40
2018-08-27T04:03:50.980Z,8.40
2018-08-27T04:06:18.648Z,8.40
2018-08-27T04:08:46.300Z,8.40
2018-08-27T04:11:13.941Z,8.30
2018-08-27T04:13:41.582Z,8.30
2018-08-27T04:16:09.245Z,8.40
2018-08-27T04:18:36.850Z,8.40
2018-08-27T04:21:04.481Z,8.40
2018-08-27T04:23:32.108Z,8.40
2018-08-27T04:25:59.740Z,8.30
2018-08-27T04:28:27.404Z,8.30
2018-08-27T04:30:55.020Z,8.40
2018-08-27T04:33:22.661Z,8.40
2018-08-27T04:35:50.302Z,8.40
2018-08-27T04:38:17.905Z,8.40
2018-08-27T04:40:45.538Z,8.40
2018-08-27T04:43:13.884Z,8.40
2018-08-27T04:45:41.530Z,8.40
2018-08-27T04:48:09.229Z,8.50
2018-08-27T04:50:36.892Z,8.50
2018-08-27T04:53:04.596Z,8.60
2018-08-27T04:55:32.248Z,8.70
2018-08-27T04:57:59.884Z,8.70
2018-08-27T05:00:28.601Z,8.80
2018-08-27T05:02:56.605Z,8.90
2018-08-27T05:05:24.270Z,9.00
2018-08-27T05:07:52.228Z,9.10
2018-08-27T05:10:19.885Z,9.20
2018-08-27T05:12:47.531Z,9.30
2018-08-27T05:15:15.443Z,9.40
2018-08-27T05:17:43.097Z,9.50
2018-08-27T05:20:10.753Z,9.50
2018-08-27T05:22:38.437Z,9.50
2018-08-27T05:25:06.125Z,9.60
2018-08-27T05:27:33.741Z,9.80
2018-08-27T05:30:01.388Z,9.90
2018-08-27T05:32:29.009Z,10.10
2018-08-27T05:34:56.645Z,10.20
2018-08-27T05:37:24.271Z,10.30
2018-08-27T05:39:51.947Z,10.40
2018-08-27T05:42:19.589Z,10.50
2018-08-27T05:44:47.257Z,10.70
2018-08-27T05:47:14.951Z,10.90
2018-08-27T05:49:42.673Z,10.90
2018-08-27T05:52:10.381Z,11.10
2018-08-27T05:54:37.964Z,11.40
2018-08-27T05:57:05.678Z,11.50
2018-08-27T05:59:33.305Z,11.60
2018-08-27T06:02:01.056Z,11.90
2018-08-27T06:04:28.690Z,12.10
2018-08-27T06:06:56.487Z,12.40
2018-08-27T06:09:24.117Z,12.70
2018-08-27T06:11:51.776Z,12.90
2018-08-27T06:14:19.404Z,13.00
2018-08-27T06:16:47.269Z,13.30
2018-08-27T06:19:14.919Z,13.60
2018-08-27T06:21:42.528Z,13.70
2018-08-27T06:24:10.153Z,14.10
2018-08-27T06:26:37.784Z,14.20
2018-08-27T06:29:05.467Z,14.30
2018-08-27T06:31:33.097Z,14.40
2018-08-27T06:34:00.744Z,14.50
2018-08-27T06:36:28.369Z,14.40
2018-08-27T06:38:56.025Z,14.40
2018-08-27T06:41:23.637Z,14.30
2018-08-27T06:43:51.232Z,14.40
2018-08-27T06:46:18.917Z,14.60
2018-08-27T06:48:46.533Z,14.70
2018-08-27T06:51:14.148Z,15.00
2018-08-27T06:53:41.781Z,15.00
2018-08-27T06:56:09.404Z,15.30
2018-08-27T06:58:37.013Z,15.50
2018-08-27T07:01:04.665Z,15.80
2018-08-27T07:03:32.313Z,15.90
2018-08-27T07:05:59.955Z,16.00
2018-08-27T07:08:27.585Z,16.30
2018-08-27T07:10:56.208Z,16.40
2018-08-27T07:13:24.896Z,16.50
2018-08-27T07:15:52.529Z,16.50
2018-08-27T07:18:20.153Z,16.60
2018-08-27T07:20:47.831Z,16.60
2018-08-27T07:23:15.460Z,16.70
2018-08-27T07:25:44.368Z,16.90
2018-08-27T07:28:12.007Z,17.00
2018-08-27T07:30:39.645Z,17.10
2018-08-27T07:33:07.269Z,17.30
2018-08-27T07:35:34.925Z,17.50
2018-08-27T07:38:03.645Z,17.60
2018-08-27T07:40:32.757Z,17.60
2018-08-27T07:43:00.950Z,17.60
2018-08-27T07:45:28.580Z,17.70
2018-08-27T07:47:56.203Z,17.80
2018-08-27T07:50:23.820Z,17.90
2018-08-27T07:52:51.468Z,17.90
2018-08-27T07:55:19.107Z,17.90
2018-08-27T07:57:46.741Z,18.00
2018-08-27T08:00:20.116Z,18.10
2018-08-27T08:02:47.896Z,18.20
2018-08-27T08:05:15.560Z,18.40
2018-08-27T08:07:43.204Z,18.60
2018-08-27T08:10:10.852Z,18.60
2018-08-27T08:12:38.564Z,18.80
2018-08-27T08:15:06.330Z,18.90
2018-08-27T08:17:33.982Z,18.90
2018-08-27T08:20:01.608Z,18.90
2018-08-27T08:22:29.224Z,19.10
2018-08-27T08:24:56.848Z,19.30
2018-08-27T08:27:24.469Z,19.50
2018-08-27T08:29:52.096Z,19.70
2018-08-27T08:32:19.708Z,19.60
2018-08-27T08:34:47.357Z,19.40
2018-08-27T08:37:14.993Z,19.60
2018-08-27T08:39:42.651Z,19.70
2018-08-27T08:42:10.323Z,19.80
2018-08-27T08:44:37.962Z,20.10
2018-08-27T08:47:05.569Z,20.30
2018-08-27T08:49:33.210Z,20.50
2018-08-27T08:52:01.056Z,20.50
2018-08-27T08:54:28.821Z,20.20
2018-08-27T08:56:56.529Z,19.70
2018-08-27T08:59:24.181Z,19.70
2018-08-27T09:01:51.829Z,19.70
2018-08-27T09:04:19.443Z,19.70
2018-08-27T09:06:48.084Z,19.40
2018-08-27T09:09:15.725Z,19.60
2018-08-27T09:11:43.329Z,19.90
2018-08-27T09:14:10.977Z,20.00
2018-08-27T09:16:38.596Z,19.90
2018-08-27T09:19:06.241Z,19.80
2018-08-27T09:21:33.877Z,20.00
2018-08-27T09:24:01.514Z,19.90
2018-08-27T09:26:29.141Z,20.30
2018-08-27T09:28:56.776Z,20.60
2018-08-27T09:31:25.441Z,20.90
2018-08-27T09:33:53.052Z,20.80
2018-08-27T09:36:20.651Z,20.90
2018-08-27T09:38:48.314Z,20.80
2018-08-27T09:41:16.628Z,20.70
2018-08-27T09:43:44.269Z,20.90
2018-08-27T09:46:11.877Z,20.90
2018-08-27T09:48:39.497Z,21.10
2018-08-27T09:51:07.142Z,21.20
2018-08-27T09:53:34.741Z,21.20
2018-08-27T09:56:02.377Z,21.50
2018-08-27T09:58:29.977Z,21.60
2018-08-27T10:01:03.190Z,21.80
2018-08-27T10:03:30.800Z,21.40
2018-08-27T10:05:58.410Z,21.50
2018-08-27T10:08:26.025Z,21.60
2018-08-27T10:10:53.636Z,21.90
2018-08-27T10:13:21.272Z,21.90
2018-08-27T10:15:48.883Z,22.00
2018-08-27T10:18:16.612Z,22.00
2018-08-27T10:20:44.333Z,21.70
2018-08-27T10:23:12.964Z,21.80
2018-08-27T10:25:40.588Z,21.80
2018-08-27T10:28:08.261Z,21.70
2018-08-27T10:30:35.865Z,21.90
2018-08-27T10:33:03.492Z,21.90
2018-08-27T10:35:31.129Z,22.00
2018-08-27T10:37:58.727Z,22.20
2018-08-27T10:40:26.376Z,22.60
2018-08-27T10:42:54.124Z,22.70
2018-08-27T10:45:21.680Z,22.90
2018-08-27T10:47:49.311Z,22.70
2018-08-27T10:50:17.022Z,22.90
2018-08-27T10:52:44.593Z,23.00
2018-08-27T10:55:12.193Z,23.40
2018-08-27T10:57:39.912Z,23.50
2018-08-27T11:00:07.608Z,22.90
2018-08-27T11:02:35.229Z,22.60
2018-08-27T11:05:02.988Z,22.50
2018-08-27T11:07:30.585Z,22.70
2018-08-27T11:09:59.202Z,23.00
2018-08-27T11:12:26.805Z,23.10
2018-08-27T11:14:54.469Z,23.20
2018-08-27T11:17:22.612Z,23.00
2018-08-27T11:22:23.457Z,22.90
2018-08-27T11:24:51.101Z,23.20
2018-08-27T11:27:18.733Z,23.50
2018-08-27T11:29:46.370Z,23.60
2018-08-27T11:32:13.956Z,24.20
2018-08-27T11:34:42.565Z,24.50
2018-08-27T11:37:10.157Z,24.40
2018-08-27T11:39:37.776Z,24.30
2018-08-27T11:42:05.412Z,24.20
2018-08-27T11:44:33.022Z,24.10
2018-08-27T11:47:00.662Z,24.20
2018-08-27T11:49:28.265Z,24.40
2018-08-27T11:51:55.865Z,24.70
2018-08-27T11:54:23.501Z,24.60
2018-08-27T11:56:51.157Z,24.50
2018-08-27T11:59:18.952Z,24.20
2018-08-27T12:01:46.765Z,24.00
2018-08-27T12:04:15.516Z,24.00
2018-08-27T12:06:43.141Z,24.30
2018-08-27T12:09:10.813Z,24.50
2018-08-27T12:11:39.400Z,24.80
2018-08-27T12:14:07.273Z,25.00
2018-08-27T12:16:34.900Z,25.10
2018-08-27T12:19:02.658Z,25.00
2018-08-27T12:21:30.297Z,25.30
2018-08-27T12:23:58.007Z,25.50
2018-08-27T12:26:25.880Z,25.50
2018-08-27T12:28:53.483Z,25.20
2018-08-27T12:31:21.076Z,25.20
2018-08-27T12:33:48.700Z,25.40
2018-08-27T12:36:16.331Z,25.90
2018-08-27T12:38:43.985Z,26.60
2018-08-27T12:41:11.697Z,27.20
2018-08-27T12:43:39.403Z,28.00
2018-08-27T12:46:06.985Z,28.20
2018-08-27T12:48:34.601Z,28.60
2018-08-27T12:51:02.331Z,28.50
2018-08-27T12:53:29.828Z,28.30
2018-08-27T12:55:57.459Z,28.30
2018-08-27T12:58:25.135Z,28.00
2018-08-27T13:00:52.764Z,27.40
2018-08-27T13:03:20.401Z,27.00
2018-08-27T13:05:48.062Z,27.20
2018-08-27T13:08:15.731Z,27.60
2018-08-27T13:10:43.285Z,27.30
2018-08-27T13:13:10.910Z,27.30
2018-08-27T13:15:38.606Z,27.80
2018-08-27T13:18:06.269Z,29.00
2018-08-27T13:20:33.893Z,29.80
2018-08-27T13:23:01.519Z,28.80
2018-08-27T13:25:29.173Z,28.00
2018-08-27T13:27:56.801Z,28.00
2018-08-27T13:30:24.568Z,27.80
2018-08-27T13:32:52.089Z,27.40
2018-08-27T13:35:19.709Z,27.30
2018-08-27T13:37:47.345Z,27.60
2018-08-27T13:40:15.072Z,28.00
2018-08-27T13:42:43.592Z,28.40
2018-08-27T13:45:11.222Z,29.10
2018-08-27T13:47:38.856Z,29.50
2018-08-27T13:50:06.553Z,29.70
2018-08-27T13:52:34.143Z,29.90
2018-08-27T13:55:01.764Z,29.90
2018-08-27T13:57:29.392Z,30.30
2018-08-27T13:59:57.080Z,30.80
2018-08-27T14:02:24.638Z,30.70
2018-08-27T14:04:52.285Z,30.70
2018-08-27T14:07:20.914Z,31.20
2018-08-27T14:09:49.554Z,31.70
2018-08-27T14:12:18.194Z,31.40
2018-08-27T14:14:45.849Z,31.30
2018-08-27T14:17:13.438Z,32.00
2018-08-27T14:19:41.217Z,32.20
2018-08-27T14:22:08.740Z,31.60
2018-08-27T14:24:37.372Z,30.60
2018-08-27T14:27:05.033Z,30.00
2018-08-27T14:29:32.649Z,29.80
2018-08-27T14:32:00.249Z,29.10
2018-08-27T14:34:27.894Z,29.00
2018-08-27T14:36:55.476Z,28.30
2018-08-27T14:39:23.105Z,27.70
2018-08-27T14:41:50.729Z,27.70
2018-08-27T14:44:19.400Z,27.90
2018-08-27T14:46:46.997Z,27.80
2018-08-27T14:49:14.604Z,28.20
2018-08-27T14:51:42.224Z,28.30
2018-08-27T14:54:09.853Z,28.30
2018-08-27T14:56:37.497Z,28.50
2018-08-27T14:59:05.191Z,28.30
2018-08-27T15:01:32.808Z,27.60
2018-08-27T15:04:01.112Z,27.00
2018-08-27T15:06:28.740Z,26.40
2018-08-27T15:08:56.415Z,26.00
2018-08-27T15:11:24.046Z,25.70
2018-08-27T15:13:51.664Z,25.50
2018-08-27T15:16:19.281Z,25.70
2018-08-27T15:18:46.940Z,26.00
2018-08-27T15:21:14.546Z,26.20
2018-08-27T15:23:44.213Z,26.40
2018-08-27T15:26:11.880Z,26.30
2018-08-27T15:28:39.494Z,26.20
2018-08-27T15:31:07.109Z,26.00
2018-08-27T15:33:34.729Z,25.80
2018-08-27T15:36:02.460Z,25.70
2018-08-27T15:38:30.157Z,25.40
2018-08-27T15:40:57.723Z,25.10
2018-08-27T15:43:25.370Z,24.80
2018-08-27T15:45:58.833Z,24.70
2018-08-27T15:48:26.450Z,24.60
2018-08-27T15:50:54.286Z,24.50
2018-08-27T15:53:21.814Z,24.60
2018-08-27T15:55:49.521Z,24.70
2018-08-27T15:58:17.144Z,24.90
2018-08-27T16:00:44.765Z,25.00
2018-08-27T16:03:12.404Z,25.10
2018-08-27T16:05:41.040Z,25.20
2018-08-27T16:08:08.648Z,25.20
2018-08-27T16:10:36.284Z,25.50
2018-08-27T16:13:03.937Z,25.70
2018-08-27T16:15:31.557Z,25.70
2018-08-27T16:17:59.221Z,25.40
2018-08-27T16:20:26.792Z,25.30
2018-08-27T16:22:54.488Z,25.30
2018-08-27T16:25:22.188Z,24.90
2018-08-27T16:27:49.837Z,25.00
2018-08-27T16:30:17.522Z,24.50
2018-08-27T16:32:45.144Z,24.40
2018-08-27T16:35:12.744Z,24.20
2018-08-27T16:37:40.412Z,24.10
2018-08-27T16:40:08.098Z,24.10
2018-08-27T16:42:35.728Z,23.90
2018-08-27T16:45:03.393Z,23.60
2018-08-27T16:47:30.995Z,23.70
2018-08-27T16:49:58.592Z,23.50
2018-08-27T16:52:26.277Z,23.20
2018-08-27T16:54:53.921Z,23.10
2018-08-27T16:57:21.544Z,23.10
2018-08-27T16:59:49.216Z,23.00
2018-08-27T17:02:16.840Z,23.20
2018-08-27T17:04:45.488Z,23.30
2018-08-27T17:07:13.189Z,23.00
2018-08-27T17:09:40.813Z,22.80
2018-08-27T17:12:08.497Z,22.80
2018-08-27T17:14:36.177Z,22.80
2018-08-27T17:17:03.968Z,22.80
2018-08-27T17:19:31.687Z,22.70
2018-08-27T17:21:59.408Z,22.40
2018-08-27T17:24:27.162Z,22.40
2018-08-27T17:26:54.898Z,22.30
2018-08-27T17:29:22.666Z,22.20
2018-08-27T17:31:50.418Z,22.10
2018-08-27T17:34:19.387Z,22.20
2018-08-27T17:36:47.672Z,22.10
2018-08-27T17:39:15.411Z,22.10
2018-08-27T17:41:44.180Z,22.10
2018-08-27T17:44:11.822Z,22.10
2018-08-27T17:46:39.527Z,22.20
2018-08-27T17:49:07.126Z,22.10
2018-08-27T17:51:34.876Z,22.00
2018-08-27T17:54:02.576Z,21.90
2018-08-27T17:56:30.390Z,21.60
2018-08-27T17:58:58.157Z,21.50
2018-08-27T18:01:27.454Z,21.30
2018-08-27T18:03:55.321Z,21.20
2018-08-27T18:06:22.982Z,21.30
2018-08-27T18:08:50.634Z,21.30
2018-08-27T18:11:18.240Z,21.20
2018-08-27T18:13:46.135Z,21.30
2018-08-27T18:16:13.827Z,21.20
2018-08-27T18:18:41.473Z,21.20
2018-08-27T18:21:09.105Z,21.20
2018-08-27T18:23:36.777Z,21.20
2018-08-27T18:26:04.464Z,21.20
2018-08-27T18:28:32.192Z,21.10
2018-08-27T18:30:59.861Z,20.90
2018-08-27T18:33:27.468Z,20.90
2018-08-27T18:35:55.100Z,20.80
2018-08-27T18:38:22.748Z,20.80
2018-08-27T18:40:50.417Z,20.90
2018-08-27T18:43:18.080Z,20.90
2018-08-27T18:45:45.682Z,21.00
2018-08-27T18:48:13.301Z,21.00
2018-08-27T18:50:40.924Z,21.10
2018-08-27T18:53:08.529Z,21.00
2018-08-27T18:55:36.174Z,21.00
2018-08-27T18:58:03.797Z,20.90
2018-08-27T19:00:31.435Z,20.90
2018-08-27T19:02:59.084Z,20.90
2018-08-27T19:05:26.728Z,20.80
2018-08-27T19:07:54.332Z,20.90
2018-08-27T19:10:21.961Z,20.90
2018-08-27T19:12:49.684Z,20.90
2018-08-27T19:15:17.267Z,21.00
2018-08-27T19:17:44.948Z,21.00
2018-08-27T19:20:12.553Z,21.20
2018-08-27T19:22:40.176Z,21.20
2018-08-27T19:25:07.870Z,21.20
2018-08-27T19:27:36.541Z,21.30
2018-08-27T19:30:04.245Z,21.30
2018-08-27T19:32:32.008Z,21.30
2018-08-27T19:35:00.733Z,21.30
2018-08-27T19:37:28.582Z,21.10
2018-08-27T19:39:56.030Z,21.10
2018-08-27T19:42:23.665Z,21.00
2018-08-27T19:44:51.285Z,20.90
2018-08-27T19:47:18.936Z,20.80
2018-08-27T19:49:46.573Z,20.70
2018-08-27T19:52:15.247Z,20.60
2018-08-27T19:54:42.869Z,20.40
2018-08-27T19:57:10.586Z,20.20
2018-08-27T19:59:38.208Z,20.20
2018-08-27T20:02:05.895Z,20.10
2018-08-27T20:04:33.504Z,20.00
2018-08-27T20:07:01.135Z,20.00
2018-08-27T20:09:28.752Z,19.90
2018-08-27T20:11:56.404Z,19.70
2018-08-27T20:14:24.063Z,19.70
2018-08-27T20:16:51.742Z,19.70
2018-08-27T20:19:19.438Z,19.70
2018-08-27T20:21:47.077Z,19.80
2018-08-27T20:24:14.708Z,19.70
2018-08-27T20:26:42.336Z,19.70
2018-08-27T20:29:09.961Z,19.60
2018-08-27T20:31:37.597Z,19.60
2018-08-27T20:34:05.269Z,19.60
2018-08-27T20:36:32.977Z,19.80
2018-08-27T20:39:00.658Z,19.80
2018-08-27T20:41:28.245Z,19.80
2018-08-27T20:43:55.844Z,19.80
2018-08-27T20:46:27.015Z,19.90
2018-08-27T20:48:54.629Z,19.70
2018-08-27T20:51:37.165Z,19.60
2018-08-27T20:56:51.118Z,19.30
2018-08-27T20:59:20.724Z,19.00
2018-08-27T21:01:48.360Z,19.10
2018-08-27T21:04:18.363Z,19.00
2018-08-27T21:06:48.983Z,18.80
2018-08-27T21:09:20.612Z,19.00
2018-08-27T21:11:48.240Z,18.90
2018-08-27T21:15:24.142Z,18.90
2018-08-27T21:18:01.584Z,18.80
2018-08-27T21:20:29.286Z,18.80
2018-08-27T21:22:59.972Z,19.00
2018-08-27T21:25:31.263Z,19.00
2018-08-27T21:27:58.873Z,19.00
2018-08-27T21:30:30.853Z,19.00
2018-08-27T21:32:59.568Z,18.30
2018-08-27T21:35:27.213Z,19.00
2018-08-27T21:37:58.365Z,19.00
2018-08-27T21:40:26.038Z,18.90
2018-08-27T21:42:53.683Z,19.10
2018-08-27T21:45:23.810Z,19.10
2018-08-27T21:47:54.257Z,19.20
2018-08-27T21:50:21.881Z,19.20
2018-08-27T21:52:53.296Z,19.20
2018-08-27T21:55:20.941Z,18.90
2018-08-27T21:57:50.801Z,19.20
2018-08-27T22:00:18.457Z,19.20
2018-08-27T22:02:53.732Z,19.20
2018-08-27T22:05:23.529Z,19.30
2018-08-27T22:07:51.164Z,19.30
2018-08-27T22:10:19.836Z,19.30
2018-08-27T22:12:47.552Z,19.20
2018-08-27T22:15:15.220Z,19.20
2018-08-27T22:17:42.855Z,19.20
2018-08-27T22:20:10.488Z,19.10
2018-08-27T22:22:38.093Z,19.10
2018-08-27T22:25:05.920Z,19.10
2018-08-27T22:27:34.532Z,19.10
2018-08-27T22:30:02.482Z,19.20
2018-08-27T22:32:30.101Z,19.20
2018-08-27T22:34:57.744Z,19.20
2018-08-27T22:37:25.362Z,19.10
2018-08-27T22:39:55.103Z,19.00
2018-08-27T22:42:22.712Z,18.90
2018-08-27T22:44:50.340Z,18.80
2018-08-27T22:47:17.992Z,18.70
2018-08-27T22:49:45.613Z,18.70
2018-08-27T22:52:13.256Z,18.60
2018-08-27T22:54:40.900Z,18.60
2018-08-27T22:57:08.653Z,18.60
2018-08-27T22:59:36.339Z,18.70
2018-08-27T23:02:04.113Z,19.90
2018-08-27T23:04:37.462Z,18.70
2018-08-27T23:07:05.198Z,18.80
2018-08-27T23:09:32.917Z,18.80
2018-08-27T23:12:00.529Z,18.90
2018-08-27T23:14:28.140Z,19.00
2018-08-27T23:16:55.832Z,19.10
2018-08-27T23:19:23.441Z,19.20
2018-08-27T23:21:51.033Z,19.20
2018-08-27T23:24:18.666Z,19.20
2018-08-27T23:26:47.308Z,19.00
2018-08-27T23:29:14.929Z,19.00
2018-08-27T23:31:42.588Z,19.00
2018-08-27T23:34:10.204Z,18.90
2018-08-27T23:36:37.813Z,18.90
2018-08-27T23:39:05.801Z,19.00
2018-08-27T23:41:33.388Z,18.90
2018-08-27T23:44:00.987Z,18.80
2018-08-27T23:46:28.648Z,18.80
2018-08-27T23:48:56.261Z,18.80
2018-08-27T23:51:23.917Z,18.80
2018-08-27T23:53:51.553Z,18.80
2018-08-27T23:56:19.147Z,18.80
2018-08-27T23:58:46.770Z,18.80
